createdAt,value
2019-05-20T00:00:03.542Z,93.60
2019-05-20T00:01:08.313Z,93.60
2019-05-20T00:02:24.533Z,93.60
2019-05-20T00:03:19.007Z,93.70
2019-05-20T00:04:23.435Z,93.70
2019-05-20T00:05:28.253Z,93.60
2019-05-20T00:06:32.445Z,93.80
2019-05-20T00:07:37.215Z,93.80
2019-05-20T00:08:41.466Z,93.80
2019-05-20T00:09:46.259Z,93.90
2019-05-20T00:10:50.466Z,93.70
2019-05-20T00:11:55.240Z,93.70
2019-05-20T00:12:59.503Z,93.80
2019-05-20T00:14:04.266Z,93.90
2019-05-20T00:15:08.518Z,94.00
2019-05-20T00:16:13.239Z,94.40
2019-05-20T00:17:17.471Z,94.10
2019-05-20T00:18:22.288Z,94.00
2019-05-20T00:19:26.669Z,93.90
2019-05-20T00:20:31.422Z,94.00
2019-05-20T00:21:35.713Z,94.10
2019-05-20T00:22:40.491Z,94.10
2019-05-20T00:23:44.751Z,94.00
2019-05-20T00:24:49.565Z,94.00
2019-05-20T00:25:53.791Z,94.10
2019-05-20T00:26:58.579Z,94.10
2019-05-20T00:28:02.857Z,94.10
2019-05-20T00:29:07.713Z,94.10
2019-05-20T00:30:12.166Z,94.10
2019-05-20T00:31:16.947Z,94.10
2019-05-20T00:32:21.154Z,94.10
2019-05-20T00:33:25.966Z,94.00
2019-05-20T00:34:35.300Z,94.10
2019-05-20T00:35:36.638Z,94.10
2019-05-20T00:36:40.887Z,94.20
2019-05-20T00:37:45.692Z,94.30
2019-05-20T00:39:08.885Z,94.30
2019-05-20T00:40:13.108Z,94.30
2019-05-20T00:41:17.885Z,94.30
2019-05-20T00:42:22.108Z,94.40
2019-05-20T00:43:26.947Z,94.40
2019-05-20T00:44:31.155Z,94.40
2019-05-20T00:45:35.930Z,94.50
2019-05-20T00:46:40.187Z,94.40
2019-05-20T00:47:44.969Z,94.40
2019-05-20T00:48:49.224Z,94.40
2019-05-20T00:49:54.004Z,94.50
2019-05-20T00:50:58.229Z,94.40
2019-05-20T00:52:03.052Z,94.40
2019-05-20T00:53:07.239Z,94.40
2019-05-20T00:54:12.055Z,94.40
2019-05-20T00:55:24.391Z,94.40
2019-05-20T00:56:29.203Z,94.40
2019-05-20T00:57:33.418Z,94.40
2019-05-20T00:58:38.229Z,94.40
2019-05-20T00:59:42.482Z,94.40
2019-05-20T01:00:47.231Z,94.40
2019-05-20T01:01:51.477Z,94.70
2019-05-20T01:02:57.389Z,94.70
2019-05-20T01:04:01.995Z,94.50
2019-05-20T01:05:06.849Z,94.60
2019-05-20T01:06:11.082Z,94.60
2019-05-20T01:07:15.939Z,94.60
2019-05-20T01:08:20.174Z,94.60
2019-05-20T01:09:24.979Z,94.70
2019-05-20T01:10:29.191Z,94.70
2019-05-20T01:11:33.894Z,94.70
2019-05-20T01:12:38.139Z,94.70
2019-05-20T01:13:42.914Z,94.70
2019-05-20T01:14:47.172Z,95.00
2019-05-20T01:15:51.988Z,94.70
2019-05-20T01:16:56.282Z,94.70
2019-05-20T01:18:01.081Z,94.70
2019-05-20T01:19:05.330Z,94.70
2019-05-20T01:20:10.106Z,94.70
2019-05-20T01:21:14.342Z,94.70
2019-05-20T01:22:19.123Z,94.70
2019-05-20T01:23:23.367Z,94.80
2019-05-20T01:24:28.098Z,94.70
2019-05-20T01:25:32.320Z,94.70
2019-05-20T01:26:37.099Z,94.80
2019-05-20T01:27:41.325Z,94.80
2019-05-20T01:28:46.108Z,94.90
2019-05-20T01:29:50.370Z,94.90
2019-05-20T01:30:55.150Z,94.90
2019-05-20T01:31:59.375Z,94.80
2019-05-20T01:33:13.431Z,94.90
2019-05-20T01:34:10.050Z,94.90
2019-05-20T01:35:14.885Z,95.00
2019-05-20T01:36:19.102Z,95.00
2019-05-20T01:37:23.875Z,95.00
2019-05-20T01:38:28.099Z,95.00
2019-05-20T01:39:32.998Z,95.00
2019-05-20T01:40:37.281Z,95.10
2019-05-20T01:41:41.983Z,95.00
2019-05-20T01:42:46.262Z,95.10
2019-05-20T01:43:51.027Z,95.40
2019-05-20T01:44:55.285Z,95.00
2019-05-20T01:46:00.072Z,95.10
2019-05-20T01:47:04.291Z,95.20
2019-05-20T01:48:09.103Z,95.20
2019-05-20T01:49:13.320Z,95.30
2019-05-20T01:50:18.139Z,95.40
2019-05-20T01:51:22.363Z,95.70
2019-05-20T01:52:27.157Z,95.40
2019-05-20T01:53:31.371Z,95.50
2019-05-20T01:54:36.139Z,95.60
2019-05-20T01:55:40.379Z,95.60
2019-05-20T01:56:45.142Z,95.60
2019-05-20T01:57:49.364Z,95.60
2019-05-20T01:58:54.139Z,95.60
2019-05-20T01:59:58.431Z,95.70
2019-05-20T02:01:03.243Z,95.60
2019-05-20T02:02:07.458Z,95.60
2019-05-20T02:03:12.223Z,95.60
2019-05-20T02:04:16.452Z,95.60
2019-05-20T02:05:21.254Z,95.60
2019-05-20T02:06:25.492Z,95.70
2019-05-20T02:07:30.264Z,95.70
2019-05-20T02:08:34.466Z,95.60
2019-05-20T02:09:39.357Z,95.60
2019-05-20T02:10:43.619Z,95.60
2019-05-20T02:11:48.391Z,95.60
2019-05-20T02:12:52.621Z,95.70
2019-05-20T02:14:01.632Z,95.70
2019-05-20T02:15:12.007Z,95.70
2019-05-20T02:16:17.219Z,95.70
2019-05-20T02:17:21.444Z,95.80
2019-05-20T02:18:26.220Z,95.70
2019-05-20T02:19:30.460Z,95.70
2019-05-20T02:20:35.263Z,95.80
2019-05-20T02:21:39.509Z,95.90
2019-05-20T02:22:44.274Z,96.20
2019-05-20T02:23:48.538Z,96.00
2019-05-20T02:24:53.303Z,96.00
2019-05-20T02:25:57.547Z,96.10
2019-05-20T02:27:02.327Z,96.10
2019-05-20T02:28:06.557Z,96.10
2019-05-20T02:29:11.373Z,96.10
2019-05-20T02:30:15.608Z,96.10
2019-05-20T02:31:20.417Z,96.40
2019-05-20T02:32:24.638Z,96.20
2019-05-20T02:33:29.407Z,96.20
2019-05-20T02:34:33.679Z,96.20
2019-05-20T02:35:38.501Z,96.20
2019-05-20T02:36:42.715Z,96.20
2019-05-20T02:37:47.494Z,96.30
2019-05-20T02:38:51.711Z,96.20
2019-05-20T02:39:56.486Z,96.30
2019-05-20T02:41:00.752Z,96.30
2019-05-20T02:42:05.538Z,96.30
2019-05-20T02:43:09.747Z,96.30
2019-05-20T02:44:14.512Z,96.30
2019-05-20T02:45:18.728Z,96.20
2019-05-20T02:46:23.638Z,96.20
2019-05-20T02:47:27.860Z,96.40
2019-05-20T02:48:32.682Z,96.10
2019-05-20T02:49:36.914Z,96.10
2019-05-20T02:50:41.693Z,96.10
2019-05-20T02:51:46.077Z,96.10
2019-05-20T02:52:50.865Z,96.10
2019-05-20T02:53:55.117Z,96.20
2019-05-20T02:54:59.844Z,96.20
2019-05-20T02:56:04.109Z,96.30
2019-05-20T02:57:08.877Z,96.30
2019-05-20T02:58:13.109Z,96.30
2019-05-20T02:59:17.896Z,96.30
2019-05-20T03:00:22.151Z,96.40
2019-05-20T03:01:26.975Z,96.40
2019-05-20T03:02:31.265Z,96.40
2019-05-20T03:03:36.048Z,96.40
2019-05-20T03:04:40.247Z,96.40
2019-05-20T03:05:45.378Z,96.40
2019-05-20T03:06:49.615Z,96.40
2019-05-20T03:07:54.395Z,96.30
2019-05-20T03:08:58.604Z,96.30
2019-05-20T03:10:03.418Z,96.30
2019-05-20T03:11:07.756Z,96.40
2019-05-20T03:12:12.678Z,96.30
2019-05-20T03:13:16.896Z,96.40
2019-05-20T03:14:21.692Z,96.40
2019-05-20T03:15:25.912Z,96.50
2019-05-20T03:16:30.733Z,96.60
2019-05-20T03:17:34.937Z,96.70
2019-05-20T03:18:39.713Z,96.80
2019-05-20T03:19:43.952Z,96.80
2019-05-20T03:20:48.775Z,96.90
2019-05-20T03:21:53.051Z,96.90
2019-05-20T03:22:57.826Z,96.90
2019-05-20T03:24:02.067Z,96.90
2019-05-20T03:25:07.253Z,96.90
2019-05-20T03:26:11.475Z,96.90
2019-05-20T03:27:16.295Z,96.90
2019-05-20T03:28:20.529Z,96.90
2019-05-20T03:29:25.286Z,96.80
2019-05-20T03:30:29.431Z,96.80
2019-05-20T03:31:34.270Z,96.80
2019-05-20T03:32:38.480Z,96.90
2019-05-20T03:33:43.236Z,97.10
2019-05-20T03:34:57.972Z,97.10
2019-05-20T03:35:53.873Z,97.10
2019-05-20T03:36:58.126Z,97.10
2019-05-20T03:38:02.902Z,97.10
2019-05-20T03:39:07.234Z,97.10
2019-05-20T03:40:12.017Z,97.10
2019-05-20T03:41:16.248Z,97.00
2019-05-20T03:42:21.057Z,97.00
2019-05-20T03:43:25.277Z,97.00
2019-05-20T03:44:30.125Z,97.10
2019-05-20T03:45:34.318Z,97.10
2019-05-20T03:46:39.157Z,97.10
2019-05-20T03:47:43.456Z,97.10
2019-05-20T03:48:48.234Z,97.40
2019-05-20T03:49:52.388Z,97.10
2019-05-20T03:50:57.166Z,97.20
2019-05-20T03:52:01.415Z,97.20
2019-05-20T03:53:06.185Z,97.20
2019-05-20T03:54:10.402Z,97.20
2019-05-20T03:55:15.178Z,97.20
2019-05-20T03:56:19.336Z,97.20
2019-05-20T03:57:24.143Z,97.30
2019-05-20T03:58:28.377Z,97.30
2019-05-20T03:59:33.159Z,97.20
2019-05-20T04:00:46.779Z,97.30
2019-05-20T04:01:51.537Z,97.30
2019-05-20T04:02:55.778Z,97.40
2019-05-20T04:04:00.610Z,97.40
2019-05-20T04:05:04.850Z,97.50
2019-05-20T04:06:09.652Z,97.50
2019-05-20T04:07:14.017Z,97.60
2019-05-20T04:08:18.787Z,97.70
2019-05-20T04:09:23.071Z,97.90
2019-05-20T04:10:27.791Z,98.00
2019-05-20T04:11:32.011Z,98.00
2019-05-20T04:12:36.828Z,97.90
2019-05-20T04:13:41.048Z,98.00
2019-05-20T04:14:45.976Z,97.90
2019-05-20T04:15:50.294Z,97.90
2019-05-20T04:16:55.092Z,97.90
2019-05-20T04:17:59.432Z,98.10
2019-05-20T04:19:04.199Z,98.20
2019-05-20T04:20:08.457Z,98.40
2019-05-20T04:21:13.235Z,98.50
2019-05-20T04:22:17.600Z,98.60
2019-05-20T04:23:22.597Z,98.70
2019-05-20T04:24:26.991Z,98.70
2019-05-20T04:25:31.958Z,98.50
2019-05-20T04:26:36.299Z,98.50
2019-05-20T04:27:41.098Z,98.50
2019-05-20T04:28:45.331Z,98.50
2019-05-20T04:29:50.137Z,98.40
2019-05-20T04:30:54.352Z,98.40
2019-05-20T04:31:59.247Z,98.40
2019-05-20T04:33:03.522Z,98.40
2019-05-20T04:34:08.319Z,98.50
2019-05-20T04:35:22.052Z,98.40
2019-05-20T04:36:19.352Z,98.40
2019-05-20T04:37:23.576Z,98.40
2019-05-20T04:38:28.382Z,98.40
2019-05-20T04:39:32.596Z,98.40
2019-05-20T04:40:37.473Z,98.30
2019-05-20T04:41:41.699Z,98.40
2019-05-20T04:42:46.456Z,98.30
2019-05-20T04:43:50.720Z,98.40
2019-05-20T04:44:55.516Z,98.40
2019-05-20T04:45:59.736Z,98.40
2019-05-20T04:47:04.518Z,98.40
2019-05-20T04:48:08.863Z,98.40
2019-05-20T04:49:13.976Z,98.40
2019-05-20T04:50:18.195Z,98.40
2019-05-20T04:51:22.979Z,98.40
2019-05-20T04:52:27.191Z,98.50
2019-05-20T04:53:32.003Z,98.70
2019-05-20T04:54:36.233Z,98.60
2019-05-20T04:55:40.995Z,98.40
2019-05-20T04:56:45.206Z,98.40
2019-05-20T04:57:49.991Z,98.40
2019-05-20T04:58:54.243Z,98.40
2019-05-20T04:59:59.018Z,98.40
2019-05-20T05:01:03.268Z,98.40
2019-05-20T05:02:08.023Z,98.60
2019-05-20T05:03:12.292Z,98.60
2019-05-20T05:04:17.098Z,98.70
2019-05-20T05:05:35.323Z,98.70
2019-05-20T05:06:27.741Z,98.90
2019-05-20T05:07:31.969Z,98.70
2019-05-20T05:08:36.767Z,98.60
2019-05-20T05:09:40.992Z,98.60
2019-05-20T05:10:46.079Z,98.70
2019-05-20T05:11:50.305Z,98.70
2019-05-20T05:12:55.152Z,98.70
2019-05-20T05:13:59.429Z,98.70
2019-05-20T05:15:07.792Z,98.70
2019-05-20T05:16:10.072Z,98.70
2019-05-20T05:17:14.871Z,98.80
2019-05-20T05:18:19.122Z,98.80
2019-05-20T05:19:23.927Z,98.80
2019-05-20T05:20:28.183Z,98.80
2019-05-20T05:21:32.959Z,98.70
2019-05-20T05:22:37.286Z,98.70
2019-05-20T05:23:42.118Z,98.70
2019-05-20T05:24:46.343Z,98.90
2019-05-20T05:25:51.268Z,98.70
2019-05-20T05:26:55.472Z,98.70
2019-05-20T05:28:00.247Z,98.70
2019-05-20T05:29:04.615Z,98.80
2019-05-20T05:30:09.395Z,98.80
2019-05-20T05:31:13.621Z,98.80
2019-05-20T05:32:19.664Z,98.90
2019-05-20T05:33:23.879Z,98.90
2019-05-20T05:34:28.691Z,98.90
2019-05-20T05:35:32.898Z,99.00
2019-05-20T05:36:37.690Z,99.10
2019-05-20T05:37:42.003Z,99.30
2019-05-20T05:38:46.769Z,99.00
2019-05-20T05:39:51.587Z,99.10
2019-05-20T05:40:56.340Z,99.00
2019-05-20T05:42:00.642Z,99.10
2019-05-20T05:43:05.655Z,99.00
2019-05-20T05:44:09.903Z,98.90
2019-05-20T05:45:14.675Z,98.90
2019-05-20T05:46:18.892Z,98.80
2019-05-20T05:47:23.659Z,98.90
2019-05-20T05:48:27.911Z,98.80
2019-05-20T05:49:32.723Z,98.80
2019-05-20T05:50:36.955Z,98.90
2019-05-20T05:51:41.741Z,98.80
2019-05-20T05:52:45.968Z,99.00
2019-05-20T05:53:50.768Z,99.00
2019-05-20T05:54:55.011Z,98.90
2019-05-20T05:55:59.778Z,99.00
2019-05-20T05:57:03.981Z,99.00
2019-05-20T05:58:09.130Z,99.00
2019-05-20T05:59:13.449Z,98.90
2019-05-20T06:00:18.223Z,98.90
2019-05-20T06:01:22.451Z,98.80
2019-05-20T06:02:27.219Z,98.80
2019-05-20T06:03:31.438Z,98.80
2019-05-20T06:04:36.250Z,98.80
2019-05-20T06:05:40.474Z,98.70
2019-05-20T06:06:45.258Z,98.70
2019-05-20T06:07:49.470Z,99.10
2019-05-20T06:08:54.247Z,98.80
2019-05-20T06:09:58.500Z,99.20
2019-05-20T06:11:03.281Z,99.00
2019-05-20T06:12:07.573Z,99.10
2019-05-20T06:13:12.303Z,99.10
2019-05-20T06:14:16.632Z,99.20
2019-05-20T06:15:21.402Z,99.10
2019-05-20T06:16:36.064Z,99.10
2019-05-20T06:17:32.054Z,99.30
2019-05-20T06:18:36.280Z,98.90
2019-05-20T06:19:41.094Z,99.00
2019-05-20T06:20:45.344Z,99.00
2019-05-20T06:21:50.090Z,99.10
2019-05-20T06:22:54.327Z,99.00
2019-05-20T06:23:59.316Z,99.10
2019-05-20T06:25:03.940Z,98.90
2019-05-20T06:26:08.839Z,99.00
2019-05-20T06:27:13.047Z,98.90
2019-05-20T06:28:17.838Z,99.20
2019-05-20T06:29:22.058Z,99.20
2019-05-20T06:30:41.502Z,99.00
2019-05-20T06:31:45.724Z,99.20
2019-05-20T06:32:50.513Z,99.10
2019-05-20T06:33:54.721Z,99.20
2019-05-20T06:34:59.535Z,99.50
2019-05-20T06:36:03.820Z,99.20
2019-05-20T06:37:10.008Z,99.20
2019-05-20T06:38:31.907Z,99.10
2019-05-20T06:39:36.167Z,99.00
2019-05-20T06:40:40.993Z,98.90
2019-05-20T06:41:45.218Z,99.00
2019-05-20T06:42:50.068Z,99.10
2019-05-20T06:43:54.426Z,99.10
2019-05-20T06:44:59.223Z,99.10
2019-05-20T06:46:03.483Z,99.10
2019-05-20T06:47:08.256Z,99.20
2019-05-20T06:48:12.521Z,99.40
2019-05-20T06:49:17.302Z,99.20
2019-05-20T06:50:21.547Z,99.20
2019-05-20T06:51:26.331Z,99.10
2019-05-20T06:52:35.894Z,99.00
2019-05-20T06:53:37.102Z,98.90
2019-05-20T06:54:41.341Z,99.00
2019-05-20T06:55:46.383Z,99.00
2019-05-20T06:56:50.615Z,99.00
2019-05-20T06:57:55.426Z,99.10
2019-05-20T06:58:59.664Z,99.00
2019-05-20T07:00:06.411Z,99.10
2019-05-20T07:01:10.707Z,99.00
2019-05-20T07:02:15.505Z,99.30
2019-05-20T07:03:19.729Z,99.00
2019-05-20T07:04:24.511Z,98.90
2019-05-20T07:05:28.780Z,98.70
2019-05-20T07:06:46.012Z,98.70
2019-05-20T07:07:39.438Z,98.70
2019-05-20T07:08:44.224Z,98.70
2019-05-20T07:09:48.450Z,98.70
2019-05-20T07:10:53.256Z,98.50
2019-05-20T07:11:57.509Z,98.70
2019-05-20T07:13:02.330Z,98.90
2019-05-20T07:14:06.523Z,98.80
2019-05-20T07:15:11.321Z,98.80
2019-05-20T07:16:15.613Z,98.80
2019-05-20T07:17:20.379Z,98.90
2019-05-20T07:18:27.325Z,98.70
2019-05-20T07:19:31.042Z,99.00
2019-05-20T07:20:35.259Z,98.70
2019-05-20T07:21:40.222Z,98.70
2019-05-20T07:22:55.448Z,99.00
2019-05-20T07:23:52.506Z,98.70
2019-05-20T07:24:56.834Z,98.70
2019-05-20T07:26:01.663Z,98.70
2019-05-20T07:27:05.877Z,98.80
2019-05-20T07:28:10.653Z,98.60
2019-05-20T07:29:14.881Z,98.70
2019-05-20T07:30:19.673Z,98.90
2019-05-20T07:31:23.914Z,98.70
2019-05-20T07:32:28.692Z,98.60
2019-05-20T07:33:32.914Z,98.60
2019-05-20T07:34:37.692Z,98.50
2019-05-20T07:35:41.913Z,98.50
2019-05-20T07:37:02.047Z,98.80
2019-05-20T07:37:52.687Z,98.50
2019-05-20T07:38:57.392Z,98.70
2019-05-20T07:40:01.603Z,98.40
2019-05-20T07:41:06.580Z,98.40
2019-05-20T07:42:10.837Z,98.40
2019-05-20T07:43:15.619Z,98.30
2019-05-20T07:44:19.851Z,98.30
2019-05-20T07:45:24.653Z,98.30
2019-05-20T07:46:28.916Z,98.30
2019-05-20T07:47:33.689Z,98.20
2019-05-20T07:48:38.002Z,98.60
2019-05-20T07:49:42.735Z,98.10
2019-05-20T07:50:46.984Z,98.30
2019-05-20T07:51:51.796Z,98.20
2019-05-20T07:52:56.162Z,98.30
2019-05-20T07:54:00.957Z,98.20
2019-05-20T07:55:05.196Z,98.30
2019-05-20T07:56:13.044Z,98.30
2019-05-20T07:57:17.305Z,98.30
2019-05-20T07:58:22.098Z,98.30
2019-05-20T07:59:26.328Z,98.50
2019-05-20T08:00:31.221Z,98.20
2019-05-20T08:01:35.464Z,98.10
2019-05-20T08:02:40.267Z,98.10
2019-05-20T08:03:44.494Z,98.10
2019-05-20T08:04:49.391Z,98.50
2019-05-20T08:05:53.606Z,98.30
2019-05-20T08:06:58.445Z,98.60
2019-05-20T08:08:02.674Z,98.30
2019-05-20T08:09:08.398Z,98.50
2019-05-20T08:10:12.775Z,98.30
2019-05-20T08:11:17.557Z,98.30
2019-05-20T08:12:21.820Z,98.20
2019-05-20T08:13:26.578Z,98.30
2019-05-20T08:14:30.823Z,98.30
2019-05-20T08:15:35.599Z,98.20
2019-05-20T08:16:39.843Z,98.30
2019-05-20T08:17:44.663Z,98.20
2019-05-20T08:18:48.909Z,98.20
2019-05-20T08:19:53.682Z,98.10
2019-05-20T08:20:57.898Z,98.10
2019-05-20T08:22:02.679Z,98.10
2019-05-20T08:23:06.954Z,98.00
2019-05-20T08:24:11.714Z,98.00
2019-05-20T08:25:15.951Z,98.00
2019-05-20T08:26:20.740Z,97.90
2019-05-20T08:27:25.002Z,97.90
2019-05-20T08:28:29.796Z,97.80
2019-05-20T08:29:34.080Z,97.70
2019-05-20T08:30:39.359Z,97.80
2019-05-20T08:31:43.591Z,97.80
2019-05-20T08:32:48.402Z,97.70
2019-05-20T08:33:52.670Z,97.60
2019-05-20T08:34:57.499Z,97.60
2019-05-20T08:36:01.754Z,97.50
2019-05-20T08:37:06.508Z,97.50
2019-05-20T08:38:10.754Z,97.50
2019-05-20T08:39:15.547Z,97.40
2019-05-20T08:40:20.059Z,97.50
2019-05-20T08:41:24.888Z,97.20
2019-05-20T08:42:29.124Z,97.20
2019-05-20T08:43:33.923Z,97.20
2019-05-20T08:44:38.135Z,97.30
2019-05-20T08:45:42.919Z,97.10
2019-05-20T08:46:47.184Z,97.10
2019-05-20T08:47:51.980Z,97.20
2019-05-20T08:48:56.231Z,97.10
2019-05-20T08:50:01.534Z,97.00
2019-05-20T08:51:06.350Z,96.90
2019-05-20T08:52:11.154Z,96.80
2019-05-20T08:53:15.473Z,96.90
2019-05-20T08:54:20.219Z,96.90
2019-05-20T08:55:24.444Z,97.00
2019-05-20T08:56:29.240Z,97.10
2019-05-20T08:57:33.467Z,96.90
2019-05-20T08:58:38.268Z,96.80
2019-05-20T08:59:42.499Z,96.80
2019-05-20T09:00:47.289Z,96.60
2019-05-20T09:01:51.494Z,96.80
2019-05-20T09:02:56.228Z,96.80
2019-05-20T09:04:00.450Z,96.80
2019-05-20T09:05:06.973Z,97.10
2019-05-20T09:06:11.203Z,96.60
2019-05-20T09:07:15.985Z,96.50
2019-05-20T09:08:20.263Z,96.50
2019-05-20T09:09:25.302Z,96.50
2019-05-20T09:10:29.601Z,96.50
2019-05-20T09:11:34.492Z,96.70
2019-05-20T09:12:38.709Z,96.30
2019-05-20T09:13:43.599Z,96.10
2019-05-20T09:14:47.898Z,96.00
2019-05-20T09:15:52.737Z,95.80
2019-05-20T09:16:56.909Z,95.90
2019-05-20T09:18:01.866Z,96.00
2019-05-20T09:19:06.223Z,95.90
2019-05-20T09:20:11.022Z,95.80
2019-05-20T09:21:15.359Z,95.50
2019-05-20T09:22:20.319Z,95.60
2019-05-20T09:23:24.694Z,95.30
2019-05-20T09:24:29.432Z,95.60
2019-05-20T09:25:33.748Z,95.70
2019-05-20T09:26:38.567Z,95.70
2019-05-20T09:27:42.804Z,96.00
2019-05-20T09:28:47.647Z,95.70
2019-05-20T09:29:51.884Z,95.60
2019-05-20T09:30:56.697Z,95.50
2019-05-20T09:32:00.945Z,95.50
2019-05-20T09:33:05.730Z,95.50
2019-05-20T09:34:09.988Z,95.50
2019-05-20T09:35:14.800Z,95.40
2019-05-20T09:36:19.065Z,95.30
2019-05-20T09:37:23.837Z,95.40
2019-05-20T09:38:28.097Z,95.70
2019-05-20T09:39:32.888Z,95.80
2019-05-20T09:40:42.336Z,95.70
2019-05-20T09:41:47.096Z,95.70
2019-05-20T09:42:51.358Z,95.80
2019-05-20T09:43:56.146Z,95.80
2019-05-20T09:45:03.053Z,95.90
2019-05-20T09:46:08.398Z,95.60
2019-05-20T09:47:12.822Z,95.50
2019-05-20T09:48:17.591Z,95.70
2019-05-20T09:49:21.900Z,95.40
2019-05-20T09:50:26.697Z,95.40
2019-05-20T09:51:30.917Z,95.30
2019-05-20T09:52:35.694Z,95.60
2019-05-20T09:53:39.945Z,95.40
2019-05-20T09:54:45.638Z,95.50
2019-05-20T09:55:49.973Z,95.90
2019-05-20T09:56:54.754Z,95.60
2019-05-20T09:57:58.972Z,95.50
2019-05-20T09:59:03.833Z,95.50
2019-05-20T10:00:08.225Z,95.50
2019-05-20T10:01:13.028Z,95.30
2019-05-20T10:02:17.233Z,95.40
2019-05-20T10:03:22.007Z,95.40
2019-05-20T10:04:26.280Z,95.20
2019-05-20T10:05:31.076Z,95.20
2019-05-20T10:06:35.411Z,95.20
2019-05-20T10:07:40.119Z,95.10
2019-05-20T10:08:45.260Z,95.30
2019-05-20T10:09:50.278Z,95.30
2019-05-20T10:10:54.469Z,95.50
2019-05-20T10:12:00.930Z,95.20
2019-05-20T10:13:05.494Z,95.10
2019-05-20T10:14:10.466Z,95.00
2019-05-20T10:15:14.719Z,95.10
2019-05-20T10:16:19.435Z,95.00
2019-05-20T10:17:23.642Z,95.00
2019-05-20T10:18:37.276Z,95.00
2019-05-20T10:19:34.345Z,95.30
2019-05-20T10:20:39.153Z,94.90
2019-05-20T10:21:43.363Z,94.80
2019-05-20T10:22:48.158Z,94.80
2019-05-20T10:23:52.497Z,94.70
2019-05-20T10:24:57.309Z,94.70
2019-05-20T10:26:01.543Z,94.70
2019-05-20T10:27:06.327Z,94.60
2019-05-20T10:28:10.568Z,94.70
2019-05-20T10:29:15.392Z,94.70
2019-05-20T10:30:19.638Z,94.70
2019-05-20T10:31:24.421Z,94.70
2019-05-20T10:32:28.639Z,94.70
2019-05-20T10:33:36.817Z,94.70
2019-05-20T10:34:39.314Z,94.70
2019-05-20T10:35:44.135Z,94.60
2019-05-20T10:36:48.481Z,94.50
2019-05-20T10:37:53.263Z,94.60
2019-05-20T10:38:59.511Z,94.70
2019-05-20T10:40:03.952Z,94.80
2019-05-20T10:41:08.226Z,94.70
2019-05-20T10:42:13.068Z,94.50
2019-05-20T10:43:17.320Z,94.60
2019-05-20T10:44:22.133Z,94.50
2019-05-20T10:45:26.388Z,94.60
2019-05-20T10:46:31.175Z,94.50
2019-05-20T10:47:35.385Z,94.90
2019-05-20T10:48:40.212Z,94.90
2019-05-20T10:49:44.473Z,95.00
2019-05-20T10:50:49.319Z,95.20
2019-05-20T10:51:53.550Z,95.10
2019-05-20T10:52:58.338Z,95.20
2019-05-20T10:54:02.563Z,95.30
2019-05-20T10:55:08.221Z,95.50
2019-05-20T10:56:13.095Z,95.30
2019-05-20T10:57:18.201Z,95.30
2019-05-20T10:58:22.438Z,94.90
2019-05-20T10:59:27.214Z,95.20
2019-05-20T11:00:31.481Z,95.10
2019-05-20T11:01:36.258Z,95.00
2019-05-20T11:02:40.493Z,95.10
2019-05-20T11:03:45.278Z,95.20
2019-05-20T11:04:49.496Z,95.60
2019-05-20T11:05:55.115Z,95.30
2019-05-20T11:06:59.354Z,95.30
2019-05-20T11:08:04.133Z,95.30
2019-05-20T11:09:14.025Z,95.40
2019-05-20T11:10:15.470Z,95.20
2019-05-20T11:11:19.722Z,95.20
2019-05-20T11:12:24.536Z,95.20
2019-05-20T11:13:28.728Z,95.10
2019-05-20T11:14:33.522Z,95.20
2019-05-20T11:15:37.773Z,95.30
2019-05-20T11:16:42.551Z,95.30
2019-05-20T11:17:46.771Z,95.10
2019-05-20T11:18:51.569Z,95.20
2019-05-20T11:19:55.821Z,95.00
2019-05-20T11:21:00.628Z,95.00
2019-05-20T11:22:04.981Z,94.90
2019-05-20T11:23:09.862Z,94.70
2019-05-20T11:24:14.109Z,94.80
2019-05-20T11:25:19.058Z,94.90
2019-05-20T11:26:23.473Z,94.90
2019-05-20T11:27:28.274Z,94.80
2019-05-20T11:28:32.479Z,94.80
2019-05-20T11:29:37.256Z,94.90
2019-05-20T11:30:41.516Z,94.90
2019-05-20T11:31:46.324Z,95.00
2019-05-20T11:32:50.552Z,95.00
2019-05-20T11:33:57.585Z,94.90
2019-05-20T11:35:01.403Z,94.90
2019-05-20T11:36:06.419Z,94.70
2019-05-20T11:37:10.634Z,95.00
2019-05-20T11:38:15.416Z,94.30
2019-05-20T11:39:32.645Z,94.60
2019-05-20T11:40:26.112Z,94.90
2019-05-20T11:41:52.172Z,94.70
2019-05-20T11:42:36.814Z,94.90
2019-05-20T11:43:41.022Z,94.50
2019-05-20T11:44:45.809Z,94.70
2019-05-20T11:45:50.026Z,94.80
2019-05-20T11:46:54.836Z,94.70
2019-05-20T11:47:59.054Z,94.70
2019-05-20T11:49:03.846Z,94.60
2019-05-20T11:50:08.190Z,94.60
2019-05-20T11:51:12.998Z,94.20
2019-05-20T11:52:17.242Z,95.00
2019-05-20T11:53:22.072Z,94.80
2019-05-20T11:54:26.401Z,94.80
2019-05-20T11:55:31.443Z,94.70
2019-05-20T11:56:35.923Z,94.80
2019-05-20T11:57:40.701Z,94.80
2019-05-20T11:58:44.934Z,94.80
2019-05-20T11:59:49.744Z,94.60
2019-05-20T12:00:53.971Z,94.80
2019-05-20T12:01:58.788Z,94.70
2019-05-20T12:03:03.036Z,94.70
2019-05-20T12:04:07.856Z,94.80
2019-05-20T12:05:12.102Z,94.80
2019-05-20T12:06:16.882Z,94.70
2019-05-20T12:07:21.201Z,94.60
2019-05-20T12:08:25.971Z,94.80
2019-05-20T12:09:30.222Z,94.50
2019-05-20T12:10:34.995Z,94.60
2019-05-20T12:11:39.334Z,94.50
2019-05-20T12:12:46.163Z,94.70
2019-05-20T12:13:49.955Z,94.70
2019-05-20T12:14:54.750Z,94.60
2019-05-20T12:15:59.000Z,94.50
2019-05-20T12:17:03.837Z,94.60
2019-05-20T12:18:08.064Z,94.60
2019-05-20T12:19:12.830Z,94.50
2019-05-20T12:20:17.067Z,94.60
2019-05-20T12:21:21.849Z,94.60
2019-05-20T12:22:26.112Z,94.60
2019-05-20T12:23:30.883Z,94.70
2019-05-20T12:24:35.093Z,94.60
2019-05-20T12:25:39.866Z,94.30
2019-05-20T12:26:44.107Z,94.20
2019-05-20T12:27:48.906Z,94.10
2019-05-20T12:28:53.421Z,94.00
2019-05-20T12:29:58.199Z,94.00
2019-05-20T12:31:03.007Z,94.20
2019-05-20T12:32:07.875Z,93.90
2019-05-20T12:33:19.879Z,93.90
2019-05-20T12:34:18.598Z,93.70
2019-05-20T12:35:22.802Z,93.60
2019-05-20T12:36:27.583Z,93.30
2019-05-20T12:37:34.134Z,93.50
2019-05-20T12:38:38.925Z,93.40
2019-05-20T12:39:43.155Z,93.10
2019-05-20T12:40:47.935Z,93.30
2019-05-20T12:41:52.165Z,93.10
2019-05-20T12:42:56.981Z,93.30
2019-05-20T12:44:11.572Z,93.40
2019-05-20T12:45:07.774Z,93.40
2019-05-20T12:46:12.027Z,93.40
2019-05-20T12:47:16.850Z,93.40
2019-05-20T12:48:21.075Z,93.30
2019-05-20T12:49:26.137Z,93.00
2019-05-20T12:50:30.516Z,92.90
2019-05-20T12:51:35.309Z,93.00
2019-05-20T12:52:39.556Z,93.10
2019-05-20T12:53:44.352Z,93.00
2019-05-20T12:55:06.126Z,92.80
2019-05-20T12:55:55.023Z,93.10
2019-05-20T12:56:59.248Z,92.90
2019-05-20T12:58:04.104Z,92.80
2019-05-20T12:59:08.345Z,92.70
2019-05-20T13:00:13.190Z,92.50
2019-05-20T13:01:17.447Z,92.10
2019-05-20T13:02:22.230Z,92.40
2019-05-20T13:03:26.483Z,92.40
2019-05-20T13:04:31.223Z,92.60
2019-05-20T13:05:35.525Z,92.70
2019-05-20T13:06:40.348Z,92.40
2019-05-20T13:07:44.607Z,92.20
2019-05-20T13:08:49.388Z,92.10
2019-05-20T13:09:53.616Z,92.20
2019-05-20T13:10:58.392Z,92.50
2019-05-20T13:12:02.729Z,92.60
2019-05-20T13:13:07.539Z,92.60
2019-05-20T13:14:11.797Z,92.60
2019-05-20T13:15:16.566Z,92.60
2019-05-20T13:16:20.796Z,92.70
2019-05-20T13:17:25.641Z,92.70
2019-05-20T13:18:29.844Z,92.80
2019-05-20T13:19:34.626Z,92.70
2019-05-20T13:20:38.864Z,92.80
2019-05-20T13:21:43.727Z,92.80
2019-05-20T13:22:48.085Z,92.70
2019-05-20T13:23:52.863Z,92.80
2019-05-20T13:24:57.079Z,92.80
2019-05-20T13:26:01.866Z,92.80
2019-05-20T13:27:06.086Z,92.70
2019-05-20T13:28:10.938Z,92.60
2019-05-20T13:29:15.174Z,92.50
2019-05-20T13:30:19.970Z,92.40
2019-05-20T13:31:24.222Z,92.40
2019-05-20T13:32:28.988Z,92.50
2019-05-20T13:33:33.251Z,92.80
2019-05-20T13:34:38.051Z,92.90
2019-05-20T13:35:42.268Z,93.00
2019-05-20T13:36:47.288Z,93.10
2019-05-20T13:37:51.515Z,93.10
2019-05-20T13:38:56.337Z,93.10
2019-05-20T13:40:03.178Z,93.20
2019-05-20T13:41:07.010Z,93.30
2019-05-20T13:42:11.259Z,93.30
2019-05-20T13:43:16.068Z,93.30
2019-05-20T13:44:20.376Z,93.40
2019-05-20T13:45:25.218Z,93.50
2019-05-20T13:46:29.435Z,93.50
2019-05-20T13:47:34.289Z,93.50
2019-05-20T13:48:38.548Z,93.40
2019-05-20T13:49:43.399Z,93.30
2019-05-20T13:50:47.628Z,93.30
2019-05-20T13:51:52.466Z,93.00
2019-05-20T13:52:56.688Z,93.00